METAR stanice u blizini

 

LYBE - Beograd / Surčin, Srbija
Ažurirano: 16/07/2024 01:30
Vedro
Vedro
 Pravac vetra ISI
Vetar: ISI 7 km/h
Temperatura: 28°C
Heat Index: 30°C
Tačka rose: 22°C
Vlažnost: 70%
Pritisak: 1011 hPa
Pregled: Vedro
Vidljivost: greater than 10 km
2024/07/15 23:30 LYBE 152330Z 07004KT CAVOK 28/22 Q1011 NOSIG
LYBT - Beograd / Batajnica, Srbija
Ažurirano: 16/07/2024 01:30
Vedro
Vedro
 Pravac vetra S
Vetar: S 4 km/h
Temperatura: 25°C
Tačka rose: 23°C
Vlažnost: 89%
Pritisak: 1011 hPa
Pregled: Vedro
Vidljivost: greater than 10 km
2024/07/15 23:30 LYBT 152330Z 36002KT CAVOK 25/23 Q1011 NOSIG
LYVR - Vršac, Srbija
Ažurirano: 16/07/2024 01:30
Vedro
Vedro
 Pravac vetra JI
Vetar: JI 11 km/h
Temperatura: 28°C
Heat Index: 28°C
Tačka rose: 14°C
Vlažnost: 42%
Pritisak: 1011 hPa
Pregled: Vedro
Vidljivost: greater than 10 km
2024/07/15 23:30 LYVR 152330Z AUTO 14006KT CAVOK 28/14 Q1011
 
LYKV - Lađevci, Srbija
Ažurirano: 16/07/2024 01:30
Vedro
Vedro
 Pravac vetra calm
Vetar: Tišina
Temperatura: 21°C
Tačka rose: 18°C
Vlažnost: 83%
Pritisak: 1012 hPa
Pregled: Vedro
Vidljivost: greater than 10 km
2024/07/15 23:30 LYKV 152330Z 00000KT CAVOK 21/18 Q1012 NOSIG
LYNI - Niš, Srbija
Ažurirano: 16/07/2024 01:30
Vedro
Vedro
 Pravac vetra varies
Vetar: varies 2 km/h
Temperatura: 23°C
Tačka rose: 14°C
Vlažnost: 57%
Pritisak: 1013 hPa
Pregled: Vedro
Vidljivost: greater than 10 km
2024/07/15 23:30 LYNI 152330Z VRB01KT CAVOK 23/14 Q1013 NOSIG
BKPR - Priština, Srbija
Ažurirano: 16/07/2024 01:30
Vedro
Vedro
 Pravac vetra varies
Vetar: varies 2 km/h
Temperatura: 22°C
Tačka rose: 16°C
Vlažnost: 69%
Pritisak: 1015 hPa
Pregled: Vedro
Vidljivost: greater than 10 km
2024/07/15 23:30 BKPR 152330Z VRB01KT CAVOK 22/16 Q1015 NOSIG
 
LHPP - Pecs / Pogany, Hungary
Ažurirano: 16/07/2024 01:15
Vedro
Vedro
 Pravac vetra calm
Vetar: Tišina
Temperatura: 26°C
Tačka rose: 21°C
Vlažnost: 74%
Pritisak: 1012 hPa
Pregled: Vedro
Vidljivost: greater than 10 km
2024/07/15 23:15 LHPP 152315Z AUTO 00000KT CAVOK 26/21 Q1012
LHUD - Szeged, Hungary
Ažurirano: 04/07/2019 01:45
NOT Current
Vedro
Vedro
 Pravac vetra S
Vetar: S 7 km/h
Temperatura: 18°C
Tačka rose: 13°C
Vlažnost: 73%
Pritisak: 1019 hPa
Pregled: Vedro
Vidljivost: greater than 10 km
2019/07/03 23:45 LHUD 032345Z 35004KT CAVOK 18/13 Q1019
LRTR - Timisoara, Romania
Ažurirano: 16/07/2024 01:30
Vedro
Vedro
 Pravac vetra I
Vetar: I 7 km/h
Temperatura: 25°C
Tačka rose: 20°C
Vlažnost: 74%
Pritisak: 1011 hPa
Pregled: Vedro
Vidljivost: greater than 10 km
2024/07/15 23:30 LRTR 152330Z 10004KT CAVOK 25/20 Q1011 NOSIG
 
LRCV - Craiova, Romania
Ažurirano: 16/07/2024 01:30
Vedro
Vedro
 Pravac vetra IJI
Vetar: IJI 9 km/h
Temperatura: 24°C
Tačka rose: 10°C
Vlažnost: 41%
Pritisak: 1013 hPa
Pregled: Vedro
Vidljivost: greater than 10 km
2024/07/15 23:30 LRCV 152330Z 11005KT CAVOK 24/10 Q1013
LBSF - Sofia, Bulgaria
Ažurirano: 16/07/2024 01:30
Vedro
Vedro
 Pravac vetra SZ
Vetar: SZ 7 km/h
Temperatura: 19°C
Tačka rose: 12°C
Vlažnost: 64%
Pritisak: 1016 hPa
Oblaci: Vedro
Vidljivost: 10 km
2024/07/15 23:30 LBSF 152330Z AUTO 31004KT 9999 NCD 19/12 Q1016 NOSIG
LWSK - Skoplje, Makedonija
Ažurirano: 16/07/2024 01:20
Vedro
Vedro
 Pravac vetra varies
Vetar: varies 4 km/h
Temperatura: 22°C
Tačka rose: 14°C
Vlažnost: 61%
Pritisak: 1012 hPa
Pregled: Vedro
Vidljivost: greater than 10 km
2024/07/15 23:20 LWSK 152320Z VRB02KT CAVOK 22/14 Q1012 NOSIG
 
LYPG - Podgorica, Crna Gora
Ažurirano: 16/07/2024 01:30
Vedro
Vedro
 Pravac vetra SSZ
Vetar: SSZ 4 km/h
Temperatura: 28°C
Heat Index: 29°C
Tačka rose: 20°C
Vlažnost: 62%
Pritisak: 1010 hPa
Pregled: Vedro
Vidljivost: greater than 10 km
2024/07/15 23:30 LYPG 152330Z AUTO 34002KT CAVOK 28/20 Q1010
LQSA - Sarajevo, Bosna i Hercegovina
Ažurirano: 16/07/2024 01:30
Vedro
Vedro
 Pravac vetra IJI
Vetar: IJI 4 km/h
Temperatura: 22°C
Tačka rose: 21°C
Vlažnost: 94%
Pritisak: 1015 hPa
Pregled: Vedro
Vidljivost: greater than 10 km
2024/07/15 23:30 LQSA 152330Z 11002KT CAVOK 22/21 Q1015
LDOS - Osijek, Hrvatksa
Ažurirano: 16/07/2024 01:30
Vedro
Vedro
 Pravac vetra SSI
Vetar: SSI 4 km/h
Temperatura: 25°C
Tačka rose: 23°C
Vlažnost: 89%
Pritisak: 1011 hPa
Pregled: Vedro
Vidljivost: greater than 10 km
2024/07/15 23:30 LDOS 152330Z 03002KT CAVOK 25/23 Q1011